»·PEaware :: N3269V KSTS-KSCK

N3269V :: KSTS-KSCK

FLIGHT INFORMATION

Flight Status: Arrived
Operator: Privately registered:
United States
More flights under this callsign
Pilot: Bob S. (4776)
Aircraft: BEECH AIRCRAFT BONANZA
(BE36)
More flights by this aircraft type
Origin: KSTS Sonoma Co
United States
Destination: KSCK Stockton Metro
United States
More flights between these airports :: More routes between these airports
Route: +SGD V106 OAKEY
File this flight plan on PilotEdge
Remarks:
Altitude:
(Current/Filed)
11,000ft
Speed:
(Current/Filed)
175kts
Departed: 08-Nov-18 07:57 PM
Arrived: 08-Nov-18 08:54 PM
Distance/Time
Traveled:
82nm/0:57
Distance/Time
To Go:
Arrived

Flight Plot

Page will automatically refresh every two minutes.

Flight plan parsing failed; only flown route is shown


Map Options




Map Legend


Flown Route
Filed Route
Departure Airport
Arrival Airport
Navaid (VOR, NDB)
Fix

Horizontal Profiles

Position Reports

Time Latitude Longitude Heading Altitude Ground
Speed
08-Nov-18 19:43 38.508567 -122.805333 359 128ft 0kts
08-Nov-18 19:44 38.508567 -122.805333 359 128ft 0kts
08-Nov-18 19:45 38.508569 -122.805333 359 128ft 0kts
08-Nov-18 19:46 38.508572 -122.805333 359 128ft 0kts
08-Nov-18 19:47 38.508575 -122.805333 359 128ft 0kts
08-Nov-18 19:48 38.508578 -122.805333 359 128ft 0kts
08-Nov-18 19:49 38.508581 -122.805333 359 128ft 0kts
08-Nov-18 19:50 38.508584 -122.805333 359 128ft 0kts
08-Nov-18 19:51 38.508586 -122.805333 359 128ft 0kts
08-Nov-18 19:52 38.508589 -122.805333 359 128ft 0kts
08-Nov-18 19:53 38.507201 -122.806159 187 128ft 18kts
08-Nov-18 19:54 38.502739 -122.804790 243 128ft 0kts
08-Nov-18 19:55 38.502299 -122.805907 242 128ft 0kts
08-Nov-18 19:56 38.502684 -122.805484 285 128ft 0kts
08-Nov-18 19:57 38.502685 -122.805489 285 128ft 0kts
08-Nov-18 19:58 38.502686 -122.805493 285 128ft 0kts
08-Nov-18 19:59 38.502713 -122.805616 284 128ft 7kts
08-Nov-18 20:00 38.518106 -122.815674 324 675ft 102kts
08-Nov-18 20:01 38.547527 -122.829338 351 2079ft 111kts
08-Nov-18 20:02 38.565352 -122.801309 87 3332ft 97kts
08-Nov-18 20:03 38.551811 -122.774952 121 4352ft 93kts
08-Nov-18 20:04 38.529903 -122.750834 133 4988ft 129kts
08-Nov-18 20:05 38.498830 -122.717260 134 5003ft 153kts
08-Nov-18 20:06 38.465734 -122.681417 134 5003ft 157kts
08-Nov-18 20:07 38.432091 -122.645099 134 5005ft 157kts
08-Nov-18 20:08 38.398713 -122.609081 134 5004ft 157kts
08-Nov-18 20:09 38.365135 -122.572807 133 5011ft 158kts
08-Nov-18 20:10 38.331611 -122.536673 134 5009ft 158kts
08-Nov-18 20:11 38.297819 -122.500274 134 5003ft 159kts
08-Nov-18 20:12 38.263923 -122.463826 134 5008ft 159kts
08-Nov-18 20:13 38.230134 -122.427540 134 4986ft 159kts
08-Nov-18 20:14 38.196186 -122.391122 134 4988ft 161kts
08-Nov-18 20:15 38.164455 -122.351425 125 4984ft 160kts
08-Nov-18 20:16 38.135025 -122.308629 125 4983ft 160kts
08-Nov-18 20:17 38.105570 -122.265863 125 4986ft 161kts
08-Nov-18 20:18 38.075900 -122.222837 125 4988ft 163kts
08-Nov-18 20:19 38.054735 -122.175921 90 4992ft 150kts
08-Nov-18 20:20 38.050828 -122.123219 90 4997ft 149kts
08-Nov-18 20:21 38.046864 -122.070858 90 4996ft 149kts
08-Nov-18 20:22 38.045763 -122.018613 84 4999ft 151kts
08-Nov-18 20:23 38.047502 -121.965584 83 5000ft 153kts
08-Nov-18 20:24 38.049220 -121.912275 83 4991ft 148kts
08-Nov-18 20:25 38.050865 -121.860271 83 4986ft 147kts
08-Nov-18 20:26 38.045108 -121.809265 117 4991ft 156kts
08-Nov-18 20:27 38.022031 -121.762382 116 5002ft 158kts
08-Nov-18 20:28 37.998975 -121.714928 115 4999ft 156kts
08-Nov-18 20:29 37.976195 -121.667987 116 5017ft 157kts
08-Nov-18 20:30 37.967634 -121.620025 55 5009ft 145kts
08-Nov-18 20:31 37.947080 -121.577652 133 5009ft 162kts
08-Nov-18 20:32 37.912830 -121.540287 134 5017ft 164kts
08-Nov-18 20:33 37.878435 -121.502692 134 5011ft 163kts
08-Nov-18 20:34 37.844290 -121.465476 134 5017ft 160kts
08-Nov-18 20:35 37.810672 -121.428639 133 5015ft 159kts
08-Nov-18 20:36 37.777093 -121.391987 133 5015ft 160kts
08-Nov-18 20:37 37.744107 -121.354328 132 5018ft 159kts
08-Nov-18 20:38 37.710910 -121.316781 133 5020ft 163kts
08-Nov-18 20:39 37.676542 -121.279200 135 5013ft 162kts
08-Nov-18 20:40 37.647281 -121.238101 112 5010ft 155kts
08-Nov-18 20:41 37.626197 -121.190423 114 5013ft 158kts
08-Nov-18 20:42 37.605355 -121.140684 114 4763ft 170kts
08-Nov-18 20:43 37.582774 -121.086349 113 4070ft 176kts
08-Nov-18 20:44 37.570420 -121.031347 50 3438ft 164kts
08-Nov-18 20:45 37.600256 -120.991718 43 3013ft 143kts
08-Nov-18 20:46 37.629154 -120.961158 10 3002ft 135kts
08-Nov-18 20:47 37.665955 -120.975552 343 3005ft 142kts
08-Nov-18 20:48 37.702630 -120.993124 344 3002ft 137kts
08-Nov-18 20:49 37.738747 -121.009027 343 2938ft 137kts
08-Nov-18 20:50 37.769259 -121.034918 306 2835ft 147kts
08-Nov-18 20:51 37.793834 -121.072569 304 1906ft 131kts
08-Nov-18 20:52 37.813393 -121.105221 307 2025ft 117kts
08-Nov-18 20:53 37.834715 -121.139885 308 1666ft 130kts
08-Nov-18 20:54 37.854228 -121.171280 303 1066ft 102kts
08-Nov-18 20:55 37.870542 -121.198178 304 562ft 92kts
08-Nov-18 20:56 37.885087 -121.222608 303 149ft 84kts
08-Nov-18 20:57 37.893769 -121.237018 309 30ft 12kts
08-Nov-18 20:58 37.894286 -121.239067 208 30ft 0kts
08-Nov-18 20:59 37.892388 -121.234701 303 30ft 35kts
08-Nov-18 21:00 37.894286 -121.239067 208 30ft 0kts
08-Nov-18 21:01 37.891440 -121.232967 300 31ft 48kts
08-Nov-18 21:02 37.894440 -121.238927 220 30ft 11kts
08-Nov-18 21:03 37.894285 -121.239068 208 30ft 0kts
08-Nov-18 21:04 37.892998 -121.241664 304 30ft 17kts
08-Nov-18 21:05 37.895274 -121.246798 264 30ft 0kts
08-Nov-18 21:06 37.895559 -121.247634 299 30ft 7kts
08-Nov-18 21:07 37.894357 -121.248876 123 30ft 9kts
08-Nov-18 21:08 37.894299 -121.248759 119 30ft 0kts
08-Nov-18 21:09 37.894299 -121.248759 119 30ft 0kts

Navigation Log

Ident Type
Flight plan parsing failed, navigation log unavailable